createdAt,value
2023-02-19T00:00:00.753Z,7.34
2023-02-19T00:02:29.436Z,7.35
2023-02-19T00:04:57.778Z,7.38
2023-02-19T00:07:25.912Z,7.38
2023-02-19T00:09:54.129Z,7.37
2023-02-19T00:12:22.231Z,7.36
2023-02-19T00:14:50.393Z,7.35
2023-02-19T00:17:18.486Z,7.35
2023-02-19T00:19:46.526Z,7.35
2023-02-19T00:22:14.785Z,7.36
2023-02-19T00:24:43.041Z,7.35
2023-02-19T00:27:11.476Z,7.38
2023-02-19T00:29:39.755Z,7.38
2023-02-19T00:32:07.851Z,7.39
2023-02-19T00:34:36.420Z,7.39
2023-02-19T00:37:04.595Z,7.35
2023-02-19T00:39:32.859Z,7.37
2023-02-19T00:42:01.347Z,7.33
2023-02-19T00:44:29.518Z,7.27
2023-02-19T00:46:57.622Z,7.19
2023-02-19T00:49:25.861Z,7.14
2023-02-19T00:51:54.062Z,7.09
2023-02-19T00:54:25.240Z,7.02
2023-02-19T00:56:53.348Z,6.98
2023-02-19T00:59:21.523Z,6.97
2023-02-19T01:01:50.074Z,6.92
2023-02-19T01:04:18.894Z,6.87
2023-02-19T01:06:48.974Z,6.82
2023-02-19T01:09:17.217Z,6.83
2023-02-19T01:11:45.891Z,6.88
2023-02-19T01:14:14.453Z,6.88
2023-02-19T01:16:42.597Z,6.86
2023-02-19T01:19:10.723Z,6.82
2023-02-19T01:21:40.315Z,6.77
2023-02-19T01:24:11.453Z,6.76
2023-02-19T01:26:40.775Z,6.74
2023-02-19T01:29:09.841Z,6.73
2023-02-19T01:31:42.418Z,6.72
2023-02-19T01:34:12.534Z,6.70
2023-02-19T01:36:41.363Z,6.66
2023-02-19T01:39:10.864Z,6.61
2023-02-19T01:41:40.855Z,6.57
2023-02-19T01:44:12.306Z,6.54
2023-02-19T01:46:44.418Z,6.55
2023-02-19T01:49:21.718Z,6.51
2023-02-19T01:51:59.289Z,6.49
2023-02-19T01:54:31.129Z,6.50
2023-02-19T01:57:02.212Z,6.45
2023-02-19T01:59:32.368Z,6.41
2023-02-19T02:02:01.206Z,6.42
2023-02-19T02:04:33.524Z,6.45
2023-02-19T02:07:03.772Z,6.47
2023-02-19T02:09:50.759Z,6.48
2023-02-19T02:12:18.789Z,6.50
2023-02-19T02:14:48.359Z,6.51
2023-02-19T02:17:30.104Z,6.47
2023-02-19T02:19:58.230Z,6.40
2023-02-19T02:22:52.550Z,6.36
2023-02-19T02:25:33.185Z,6.32
2023-02-19T02:28:14.961Z,6.19
2023-02-19T02:30:53.394Z,6.14
2023-02-19T02:33:46.855Z,6.09
2023-02-19T02:36:18.450Z,5.98
2023-02-19T02:38:48.479Z,5.96
2023-02-19T02:41:17.084Z,5.97
2023-02-19T02:43:45.568Z,5.94
2023-02-19T02:46:20.176Z,5.92
2023-02-19T02:48:54.105Z,5.87
2023-02-19T02:51:32.113Z,5.86
2023-02-19T02:54:42.766Z,5.82
2023-02-19T02:57:15.438Z,5.87
2023-02-19T02:59:50.583Z,5.87
2023-02-19T03:02:26.447Z,5.88
2023-02-19T03:05:23.076Z,5.93
2023-02-19T03:08:05.895Z,5.90
2023-02-19T03:10:57.731Z,5.85
2023-02-19T03:13:53.101Z,5.84
2023-02-19T03:16:45.312Z,5.88
2023-02-19T03:19:21.017Z,5.85
2023-02-19T03:22:20.074Z,5.79
2023-02-19T03:25:16.043Z,5.73
2023-02-19T03:27:46.669Z,5.66
2023-02-19T03:30:27.303Z,5.60
2023-02-19T03:33:01.648Z,5.55
2023-02-19T03:35:40.188Z,5.54
2023-02-19T03:38:12.954Z,5.50
2023-02-19T03:40:59.961Z,5.53
2023-02-19T03:43:54.911Z,5.52
2023-02-19T03:46:50.892Z,5.48
2023-02-19T03:49:27.365Z,5.38
2023-02-19T03:52:35.109Z,5.32
2023-02-19T03:55:10.611Z,5.36
2023-02-19T03:58:00.892Z,5.34
2023-02-19T04:00:41.214Z,5.30
2023-02-19T04:03:33.189Z,5.37
2023-02-19T04:06:11.702Z,5.44
2023-02-19T04:08:44.491Z,5.50
2023-02-19T04:11:14.859Z,5.54
2023-02-19T04:14:06.348Z,5.54
2023-02-19T04:16:39.123Z,5.52
2023-02-19T04:19:12.055Z,5.57
2023-02-19T04:21:42.324Z,5.62
2023-02-19T04:24:15.322Z,5.63
2023-02-19T04:26:45.248Z,5.64
2023-02-19T04:29:13.391Z,5.65
2023-02-19T04:31:41.735Z,5.63
2023-02-19T04:34:09.889Z,5.59
2023-02-19T04:36:37.931Z,5.54
2023-02-19T04:39:06.001Z,5.47
2023-02-19T04:41:34.973Z,5.42
2023-02-19T04:44:03.132Z,5.37
2023-02-19T04:46:31.542Z,5.30
2023-02-19T04:48:59.696Z,5.23
2023-02-19T04:51:27.792Z,5.14
2023-02-19T04:53:56.558Z,5.01
2023-02-19T04:56:24.732Z,5.01
2023-02-19T04:58:53.216Z,5.06
2023-02-19T05:01:21.622Z,5.05
2023-02-19T05:03:49.748Z,4.97
2023-02-19T05:06:18.216Z,4.86
2023-02-19T05:08:46.413Z,4.88
2023-02-19T05:11:14.792Z,4.87
2023-02-19T05:13:43.167Z,4.73
2023-02-19T05:16:16.154Z,4.64
2023-02-19T05:18:46.946Z,4.60
2023-02-19T05:21:16.106Z,4.51
2023-02-19T05:23:44.374Z,4.54
2023-02-19T05:26:18.794Z,4.62
2023-02-19T05:28:49.247Z,4.65
2023-02-19T05:31:18.085Z,4.68
2023-02-19T05:33:51.227Z,4.63
2023-02-19T05:36:21.673Z,4.52
2023-02-19T05:38:55.338Z,4.44
2023-02-19T05:41:26.130Z,4.42
2023-02-19T05:43:54.939Z,4.40
2023-02-19T05:46:26.230Z,4.42
2023-02-19T05:48:55.089Z,4.35
2023-02-19T05:51:25.381Z,4.25
2023-02-19T05:53:54.014Z,4.16
2023-02-19T05:56:28.468Z,4.12
2023-02-19T05:58:57.196Z,4.05
2023-02-19T06:01:28.741Z,4.01
2023-02-19T06:03:58.029Z,4.08
2023-02-19T06:06:27.546Z,4.18
2023-02-19T06:08:55.724Z,4.21
2023-02-19T06:11:25.394Z,4.32
2023-02-19T06:13:53.519Z,4.45
2023-02-19T06:16:22.205Z,4.60
2023-02-19T06:18:50.638Z,4.77
2023-02-19T06:21:19.453Z,4.95
2023-02-19T06:23:47.631Z,5.14
2023-02-19T06:26:21.638Z,5.35
2023-02-19T06:28:51.518Z,5.47
2023-02-19T06:31:21.061Z,5.54
2023-02-19T06:33:50.906Z,5.58
2023-02-19T06:36:21.093Z,5.62
2023-02-19T06:38:49.336Z,5.68
2023-02-19T06:41:18.057Z,5.73
2023-02-19T06:43:46.736Z,5.79
2023-02-19T06:46:15.471Z,5.84
2023-02-19T06:48:45.171Z,5.88
2023-02-19T06:51:16.035Z,5.91
2023-02-19T06:53:44.410Z,5.95
2023-02-19T06:56:38.540Z,6.00
2023-02-19T06:59:10.088Z,6.09
2023-02-19T07:01:39.108Z,6.13
2023-02-19T07:04:08.217Z,6.16
2023-02-19T07:06:37.269Z,6.21
2023-02-19T07:09:07.630Z,6.25
2023-02-19T07:11:39.046Z,6.29
2023-02-19T07:14:13.881Z,6.34
2023-02-19T07:16:42.572Z,6.36
2023-02-19T07:19:12.123Z,6.37
2023-02-19T07:21:40.439Z,6.43
2023-02-19T07:24:09.994Z,6.47
2023-02-19T07:26:38.104Z,6.52
2023-02-19T07:29:07.640Z,6.59
2023-02-19T07:31:36.079Z,6.64
2023-02-19T07:34:04.373Z,6.70
2023-02-19T07:36:32.445Z,6.82
2023-02-19T07:39:00.826Z,6.92
2023-02-19T07:41:28.999Z,7.00
2023-02-19T07:43:59.165Z,7.07
2023-02-19T07:46:27.776Z,7.18
2023-02-19T07:48:55.925Z,7.27
2023-02-19T07:51:24.313Z,7.37
2023-02-19T07:53:52.444Z,7.51
2023-02-19T07:56:21.110Z,7.62
2023-02-19T07:58:49.822Z,7.72
2023-02-19T08:01:43.265Z,7.82
2023-02-19T08:04:13.410Z,7.96
2023-02-19T08:06:42.066Z,8.10
2023-02-19T08:09:10.754Z,8.28
2023-02-19T08:11:57.814Z,8.46
2023-02-19T08:14:26.981Z,8.62
2023-02-19T08:16:55.590Z,8.71
2023-02-19T08:19:23.647Z,8.81
2023-02-19T08:21:53.648Z,8.86
2023-02-19T08:24:22.274Z,8.91
2023-02-19T08:26:50.703Z,8.88
2023-02-19T08:29:18.812Z,8.86
2023-02-19T08:31:47.314Z,8.86
2023-02-19T08:34:15.524Z,8.96
2023-02-19T08:36:44.336Z,9.01
2023-02-19T08:39:12.532Z,9.05
2023-02-19T08:41:40.762Z,9.04
2023-02-19T08:44:09.038Z,9.23
2023-02-19T08:46:37.256Z,9.37
2023-02-19T08:49:05.484Z,9.44
2023-02-19T08:51:33.760Z,9.52
2023-02-19T08:54:03.978Z,9.46
2023-02-19T08:56:32.258Z,9.49
2023-02-19T08:59:00.320Z,9.45
2023-02-19T09:01:28.797Z,9.53
2023-02-19T09:03:56.883Z,9.58
2023-02-19T09:06:25.359Z,9.62
2023-02-19T09:08:53.463Z,9.69
2023-02-19T09:11:21.806Z,9.62
2023-02-19T09:13:49.981Z,9.55
2023-02-19T09:16:18.026Z,9.55
2023-02-19T09:18:46.129Z,9.51
2023-02-19T09:21:14.372Z,9.41
2023-02-19T09:23:42.779Z,9.29
2023-02-19T09:26:11.676Z,9.17
2023-02-19T09:28:42.033Z,9.25
2023-02-19T09:31:14.063Z,9.30
2023-02-19T09:33:47.232Z,9.32
2023-02-19T09:36:16.819Z,9.27
2023-02-19T09:38:45.857Z,9.29
2023-02-19T09:41:32.991Z,9.39
2023-02-19T09:44:04.971Z,9.39
2023-02-19T09:46:44.279Z,9.54
2023-02-19T09:49:37.900Z,9.62
2023-02-19T09:52:45.433Z,9.65
2023-02-19T09:55:27.017Z,9.63
2023-02-19T09:57:57.619Z,9.73
2023-02-19T10:00:32.191Z,9.72
2023-02-19T10:03:31.988Z,9.65
2023-02-19T10:06:05.261Z,9.64
2023-02-19T10:08:37.971Z,9.65
2023-02-19T10:11:06.951Z,9.63
2023-02-19T10:13:40.961Z,9.51
2023-02-19T10:16:17.749Z,9.46
2023-02-19T10:18:47.356Z,9.26
2023-02-19T10:21:24.809Z,9.19
2023-02-19T10:24:01.487Z,9.06
2023-02-19T10:26:34.810Z,8.93
2023-02-19T10:29:03.276Z,8.95
2023-02-19T10:31:33.463Z,8.95
2023-02-19T10:34:02.412Z,8.92
2023-02-19T10:36:36.413Z,8.82
2023-02-19T10:39:26.624Z,8.73
2023-02-19T10:41:55.277Z,8.56
2023-02-19T10:44:29.183Z,8.48
2023-02-19T10:47:00.225Z,8.51
2023-02-19T10:49:34.361Z,8.57
2023-02-19T10:52:20.441Z,8.65
2023-02-19T10:54:55.371Z,8.69
2023-02-19T10:57:32.814Z,8.73
2023-02-19T11:00:19.170Z,8.79
2023-02-19T11:02:47.427Z,8.80
2023-02-19T11:05:20.957Z,8.87
2023-02-19T11:07:56.594Z,8.94
2023-02-19T11:10:40.731Z,8.92
2023-02-19T11:13:16.889Z,8.98
2023-02-19T11:15:52.694Z,9.02
2023-02-19T11:18:31.251Z,8.90
2023-02-19T11:21:02.787Z,8.85
2023-02-19T11:23:45.107Z,8.75
2023-02-19T11:26:21.066Z,8.76
2023-02-19T11:29:19.874Z,8.76
2023-02-19T11:31:48.207Z,8.69
2023-02-19T11:34:21.529Z,8.59
2023-02-19T11:37:13.518Z,8.52
2023-02-19T11:39:45.230Z,8.53
2023-02-19T11:42:24.458Z,8.51
2023-02-19T11:44:52.508Z,8.49
2023-02-19T11:47:29.855Z,8.46
2023-02-19T11:50:17.028Z,8.43
2023-02-19T11:53:09.651Z,8.42
2023-02-19T11:55:51.670Z,8.39
2023-02-19T11:58:34.695Z,8.39
2023-02-19T12:01:29.694Z,8.39
2023-02-19T12:04:26.372Z,8.36
2023-02-19T12:07:31.678Z,8.31
2023-02-19T12:10:19.349Z,8.20
2023-02-19T12:13:06.019Z,8.10
2023-02-19T12:16:02.143Z,7.98
2023-02-19T12:18:54.893Z,7.82
2023-02-19T12:21:47.747Z,7.66
2023-02-19T12:24:15.863Z,7.53
2023-02-19T12:26:59.469Z,7.50
2023-02-19T12:29:58.671Z,7.41
2023-02-19T12:32:38.790Z,7.35
2023-02-19T12:35:28.419Z,7.36
2023-02-19T12:38:08.851Z,7.29
2023-02-19T12:41:03.645Z,7.22
2023-02-19T12:43:33.801Z,7.14
2023-02-19T12:46:11.421Z,7.12
2023-02-19T12:48:39.607Z,7.10
2023-02-19T12:51:21.483Z,7.12
2023-02-19T12:53:58.757Z,7.10
2023-02-19T12:56:32.354Z,7.04
2023-02-19T12:59:10.440Z,6.97
2023-02-19T13:01:47.298Z,6.95
2023-02-19T13:04:31.292Z,6.93
2023-02-19T13:07:19.500Z,6.95
2023-02-19T13:09:59.917Z,7.02
2023-02-19T13:12:37.132Z,7.10
2023-02-19T13:15:20.606Z,7.21
2023-02-19T13:17:56.081Z,7.33
2023-02-19T13:20:32.836Z,7.45
2023-02-19T13:23:30.959Z,7.57
2023-02-19T13:26:17.574Z,7.67
2023-02-19T13:29:00.994Z,7.75
2023-02-19T13:31:54.473Z,7.80
2023-02-19T13:34:52.842Z,7.88
2023-02-19T13:37:22.345Z,7.92
2023-02-19T13:39:53.313Z,7.91
2023-02-19T13:42:27.637Z,7.91
2023-02-19T13:44:58.056Z,7.92
2023-02-19T13:47:59.832Z,7.97
2023-02-19T13:50:33.669Z,8.23
2023-02-19T13:53:22.399Z,8.36
2023-02-19T13:55:52.691Z,8.40
2023-02-19T13:58:33.342Z,8.45
2023-02-19T14:01:02.582Z,8.42
2023-02-19T14:03:42.973Z,8.36
2023-02-19T14:06:11.798Z,8.25
2023-02-19T14:09:00.377Z,8.20
2023-02-19T14:11:48.307Z,8.19
2023-02-19T14:14:35.592Z,8.17
2023-02-19T14:17:25.300Z,8.17
2023-02-19T14:19:56.891Z,8.18
2023-02-19T14:22:55.570Z,8.16
2023-02-19T14:25:52.868Z,8.16
2023-02-19T14:28:53.637Z,8.15
2023-02-19T14:31:36.618Z,8.15
2023-02-19T14:34:27.069Z,8.12
2023-02-19T14:37:01.173Z,8.10
2023-02-19T14:39:33.298Z,8.08
2023-02-19T14:42:08.289Z,8.07
2023-02-19T14:44:54.535Z,8.05
2023-02-19T14:47:26.032Z,8.06
2023-02-19T14:50:08.385Z,8.08
2023-02-19T14:52:44.582Z,8.09
2023-02-19T14:55:36.286Z,8.09
2023-02-19T14:58:07.924Z,8.06
2023-02-19T15:00:39.682Z,8.08
2023-02-19T15:03:29.474Z,8.05
2023-02-19T15:06:08.936Z,8.04
2023-02-19T15:08:42.608Z,8.05
2023-02-19T15:11:20.630Z,8.08
2023-02-19T15:13:52.419Z,8.07
2023-02-19T15:16:25.610Z,8.05
2023-02-19T15:18:57.424Z,7.97
2023-02-19T15:21:32.728Z,7.89
2023-02-19T15:24:04.144Z,7.77
2023-02-19T15:26:36.007Z,7.66
2023-02-19T15:29:13.896Z,7.57
2023-02-19T15:31:54.005Z,7.46
2023-02-19T15:34:25.388Z,7.31
2023-02-19T15:37:01.385Z,7.19
2023-02-19T15:39:40.589Z,7.12
2023-02-19T15:42:12.259Z,7.05
2023-02-19T15:44:51.858Z,7.02
2023-02-19T15:47:40.059Z,7.04
2023-02-19T15:50:31.725Z,7.04
2023-02-19T15:53:00.035Z,7.07
2023-02-19T15:55:54.082Z,7.12
2023-02-19T15:58:28.365Z,7.18
2023-02-19T16:01:08.499Z,7.22
2023-02-19T16:03:37.240Z,7.21
2023-02-19T16:06:17.016Z,7.23
2023-02-19T16:09:02.283Z,7.25
2023-02-19T16:11:39.247Z,7.26
2023-02-19T16:14:29.221Z,7.28
2023-02-19T16:17:07.637Z,7.34
2023-02-19T16:20:01.507Z,7.38
2023-02-19T16:22:41.362Z,7.42
2023-02-19T16:25:28.581Z,7.43
2023-02-19T16:27:57.615Z,7.45
2023-02-19T16:30:30.584Z,7.42
2023-02-19T16:33:33.210Z,7.32
2023-02-19T16:36:41.951Z,7.20
2023-02-19T16:39:15.255Z,7.12
2023-02-19T16:41:46.813Z,7.11
2023-02-19T16:44:20.833Z,7.12
2023-02-19T16:46:51.159Z,7.09
2023-02-19T16:49:19.860Z,7.11
2023-02-19T16:51:48.262Z,7.12
2023-02-19T16:54:16.403Z,7.13
2023-02-19T16:56:44.555Z,7.13
2023-02-19T16:59:12.619Z,7.17
2023-02-19T17:01:41.106Z,7.18
2023-02-19T17:04:12.786Z,7.24
2023-02-19T17:06:41.345Z,7.31
2023-02-19T17:09:09.471Z,7.34
2023-02-19T17:11:37.888Z,7.35
2023-02-19T17:14:06.153Z,7.30
2023-02-19T17:16:40.699Z,7.32
2023-02-19T17:19:18.464Z,7.37
2023-02-19T17:21:47.492Z,7.40
2023-02-19T17:24:15.657Z,7.42
2023-02-19T17:26:43.830Z,7.45
2023-02-19T17:29:14.606Z,7.46
2023-02-19T17:31:42.881Z,7.45
2023-02-19T17:34:11.348Z,7.42
2023-02-19T17:36:40.548Z,7.38
2023-02-19T17:39:15.304Z,7.36
2023-02-19T17:41:44.131Z,7.32
2023-02-19T17:44:12.198Z,7.31
2023-02-19T17:46:41.139Z,7.28
2023-02-19T17:49:12.752Z,7.24
2023-02-19T17:51:41.027Z,7.22
2023-02-19T17:54:09.621Z,7.22
2023-02-19T17:56:40.036Z,7.23
2023-02-19T17:59:08.105Z,7.22
2023-02-19T18:01:36.905Z,7.18
2023-02-19T18:04:05.652Z,7.12
2023-02-19T18:06:35.087Z,7.09
2023-02-19T18:09:03.460Z,7.07
2023-02-19T18:11:31.548Z,7.06
2023-02-19T18:14:00.556Z,7.04
2023-02-19T18:16:28.904Z,7.00
2023-02-19T18:19:00.046Z,6.89
2023-02-19T18:21:28.149Z,6.87
2023-02-19T18:23:56.500Z,6.85
2023-02-19T18:26:24.883Z,6.82
2023-02-19T18:28:53.151Z,6.80
2023-02-19T18:31:21.300Z,6.74
2023-02-19T18:33:50.133Z,6.69
2023-02-19T18:36:18.282Z,6.67
2023-02-19T18:38:46.670Z,6.65
2023-02-19T18:41:19.555Z,6.65
2023-02-19T18:43:48.646Z,6.64
2023-02-19T18:46:16.977Z,6.63
2023-02-19T18:48:45.266Z,6.63
2023-02-19T18:51:13.519Z,6.60
2023-02-19T18:53:45.067Z,6.57
2023-02-19T18:56:13.296Z,6.55
2023-02-19T18:58:41.617Z,6.54
2023-02-19T19:01:10.286Z,6.49
2023-02-19T19:03:41.502Z,6.48
2023-02-19T19:06:12.305Z,6.47
2023-02-19T19:08:40.723Z,6.43
2023-02-19T19:11:09.540Z,6.41
2023-02-19T19:13:37.814Z,6.38
2023-02-19T19:16:06.322Z,6.36
2023-02-19T19:18:38.341Z,6.36
2023-02-19T19:21:09.730Z,6.35
2023-02-19T19:23:37.958Z,6.35
2023-02-19T19:26:06.711Z,6.38
2023-02-19T19:28:34.720Z,6.37
2023-02-19T19:31:05.848Z,6.36
2023-02-19T19:33:34.233Z,6.33
2023-02-19T19:36:02.319Z,6.29
2023-02-19T19:38:30.614Z,6.05
2023-02-19T19:40:58.956Z,5.73
2023-02-19T19:43:29.218Z,5.37
2023-02-19T19:45:58.325Z,4.97
2023-02-19T19:48:27.797Z,4.67
2023-02-19T19:50:57.214Z,4.42
2023-02-19T19:53:26.155Z,4.21
2023-02-19T19:55:54.698Z,4.07
2023-02-19T19:58:24.881Z,3.98
2023-02-19T20:00:53.109Z,3.94
2023-02-19T20:03:22.051Z,3.92
2023-02-19T20:05:51.303Z,3.86
2023-02-19T20:08:19.970Z,3.81
2023-02-19T20:10:48.601Z,3.78
2023-02-19T20:13:24.871Z,3.75
2023-02-19T20:15:53.011Z,3.77
2023-02-19T20:18:21.751Z,3.77
2023-02-19T20:20:49.898Z,3.80
2023-02-19T20:23:18.402Z,3.80
2023-02-19T20:25:46.552Z,3.79
2023-02-19T20:28:14.678Z,3.79
2023-02-19T20:30:43.865Z,3.81
2023-02-19T20:33:12.200Z,3.83
2023-02-19T20:35:40.901Z,3.85
2023-02-19T20:38:09.196Z,3.86
2023-02-19T20:40:37.640Z,3.86
2023-02-19T20:43:06.018Z,3.85
2023-02-19T20:45:34.110Z,3.82
2023-02-19T20:48:02.579Z,3.79
2023-02-19T20:50:31.052Z,3.76
2023-02-19T20:52:59.118Z,3.68
2023-02-19T20:55:28.319Z,3.56
2023-02-19T20:57:56.464Z,3.42
2023-02-19T21:00:24.665Z,3.32
2023-02-19T21:02:52.868Z,3.14
2023-02-19T21:05:21.275Z,3.04
2023-02-19T21:07:49.904Z,2.94
2023-02-19T21:10:18.536Z,2.92
2023-02-19T21:12:46.782Z,2.89
2023-02-19T21:15:14.870Z,2.83
2023-02-19T21:17:46.659Z,2.72
2023-02-19T21:20:18.057Z,2.65
2023-02-19T21:22:46.831Z,2.51
2023-02-19T21:25:15.044Z,2.41
2023-02-19T21:27:43.385Z,2.30
2023-02-19T21:30:12.141Z,2.20
2023-02-19T21:32:40.310Z,2.10
2023-02-19T21:35:08.592Z,2.00
2023-02-19T21:37:36.696Z,1.89
2023-02-19T21:40:06.240Z,1.77
2023-02-19T21:42:34.389Z,1.66
2023-02-19T21:45:03.685Z,1.58
2023-02-19T21:47:31.797Z,1.44
2023-02-19T21:50:00.030Z,1.35
2023-02-19T21:52:28.958Z,1.29
2023-02-19T21:54:58.098Z,1.23
2023-02-19T21:57:26.299Z,1.17
2023-02-19T21:59:54.659Z,1.16
2023-02-19T22:02:22.837Z,1.13
2023-02-19T22:04:53.771Z,1.13
2023-02-19T22:07:22.554Z,1.12
2023-02-19T22:09:52.152Z,1.12
2023-02-19T22:12:20.759Z,1.11
2023-02-19T22:14:49.010Z,1.06
2023-02-19T22:17:17.295Z,0.99
2023-02-19T22:19:45.461Z,0.95
2023-02-19T22:22:14.355Z,0.94
2023-02-19T22:24:42.728Z,0.94
2023-02-19T22:27:10.867Z,0.94
2023-02-19T22:29:39.689Z,0.93
2023-02-19T22:32:08.493Z,0.88
2023-02-19T22:34:40.955Z,0.83
2023-02-19T22:37:10.544Z,0.80
2023-02-19T22:39:38.587Z,0.77
2023-02-19T22:42:06.713Z,0.74
2023-02-19T22:44:35.590Z,0.73
2023-02-19T22:47:03.730Z,0.72
2023-02-19T22:49:32.040Z,0.74
2023-02-19T22:52:07.546Z,0.72
2023-02-19T22:54:36.678Z,0.69
2023-02-19T22:57:05.640Z,0.65
2023-02-19T22:59:33.770Z,0.65
2023-02-19T23:02:02.061Z,0.63
2023-02-19T23:04:30.331Z,0.62
2023-02-19T23:06:58.483Z,0.60
2023-02-19T23:09:28.650Z,0.62
2023-02-19T23:12:07.170Z,0.60
2023-02-19T23:14:35.900Z,0.63
2023-02-19T23:17:04.039Z,0.67
2023-02-19T23:19:32.685Z,0.72
2023-02-19T23:22:01.307Z,0.71
2023-02-19T23:24:29.618Z,0.68
2023-02-19T23:26:59.776Z,0.66
2023-02-19T23:29:30.888Z,0.66
2023-02-19T23:32:00.419Z,0.62
2023-02-19T23:34:28.760Z,0.64
2023-02-19T23:36:59.580Z,0.66
2023-02-19T23:39:28.896Z,0.65
2023-02-19T23:41:57.994Z,0.66
2023-02-19T23:44:26.575Z,0.67
2023-02-19T23:46:54.627Z,0.67
2023-02-19T23:49:23.426Z,0.69
2023-02-19T23:51:51.954Z,0.70
2023-02-19T23:54:20.326Z,0.73
2023-02-19T23:56:48.569Z,0.64
2023-02-19T23:59:16.834Z,0.64
